Time;durP1;ratioP1;P1;durP2;ratioP2;P2;SDS_P1;SDS_P2;PMS_P1;PMS_P2;Temp;Humidity;BMP_temperature;BMP_pressure;BME280_temperature;BME280_humidity;BME280_pressure;Samples;Min_cycle;Max_cycle;Signal;HPM_P1;HPM_P2
2020/12/03 00:01:02;;;;;;;68.38;34.53;;;2.90;99.90;;;;;;4986714;28;20034;-82
2020/12/03 00:03:39;;;;;;;70.97;36.55;;;2.90;99.90;;;;;;4991355;28;20018;-82
2020/12/03 00:06:30;;;;;;;72.20;35.90;;;2.90;99.90;;;;;;5008871;28;20054;-85
2020/12/03 00:08:59;;;;;;;73.65;36.67;;;2.90;99.90;;;;;;5008975;28;20030;-85
2020/12/03 00:11:32;;;;;;;71.63;35.33;;;2.90;99.90;;;;;;5012066;28;20074;-85
2020/12/03 00:13:57;;;;;;;70.93;35.55;;;2.90;99.90;;;;;;5064701;28;20077;-84
2020/12/03 00:16:26;;;;;;;73.10;35.63;;;2.90;99.90;;;;;;5071895;28;20036;-85
2020/12/03 00:18:52;;;;;;;63.25;32.88;;;2.90;99.90;;;;;;5071329;28;20115;-84
2020/12/03 00:21:31;;;;;;;69.00;34.35;;;2.90;99.90;;;;;;5074012;28;20059;-84
2020/12/03 00:23:57;;;;;;;68.10;34.78;;;2.90;99.90;;;;;;5081932;28;20442;-85
2020/12/03 00:26:26;;;;;;;66.97;32.05;;;3.00;99.90;;;;;;5069497;28;20107;-85
2020/12/03 00:28:51;;;;;;;67.78;33.13;;;3.00;99.90;;;;;;5068804;28;20045;-85
2020/12/03 00:31:17;;;;;;;69.88;34.63;;;3.00;99.90;;;;;;5070598;28;20032;-84
2020/12/03 00:33:42;;;;;;;71.90;34.65;;;2.90;99.90;;;;;;5070111;28;20392;-85
2020/12/03 00:36:08;;;;;;;71.70;33.20;;;3.00;99.90;;;;;;5068441;28;20127;-85
2020/12/03 00:38:33;;;;;;;71.97;34.05;;;3.00;99.90;;;;;;5075093;28;20020;-85
2020/12/03 00:40:59;;;;;;;64.25;33.25;;;3.00;99.90;;;;;;5081476;28;20028;-85
2020/12/03 00:43:25;;;;;;;68.25;33.25;;;3.10;99.90;;;;;;5069937;28;20040;-84
2020/12/03 00:45:50;;;;;;;71.00;34.58;;;3.00;99.90;;;;;;5066727;28;20042;-84
2020/12/03 00:48:17;;;;;;;71.53;34.42;;;3.00;99.90;;;;;;5071010;28;20027;-85
2020/12/03 00:50:44;;;;;;;64.97;31.60;;;3.10;99.90;;;;;;5070325;28;20503;-84
2020/12/03 00:53:09;;;;;;;67.40;33.65;;;3.10;99.90;;;;;;5068418;28;20059;-85
2020/12/03 00:55:35;;;;;;;68.88;33.60;;;3.10;99.90;;;;;;5066876;28;20056;-85
2020/12/03 00:58:01;;;;;;;72.00;34.10;;;3.10;99.90;;;;;;5069618;28;20024;-85
2020/12/03 01:00:27;;;;;;;64.30;33.90;;;3.00;99.90;;;;;;5068909;28;20054;-85
2020/12/03 01:02:52;;;;;;;68.10;33.63;;;3.10;99.90;;;;;;5088272;28;20040;-85
2020/12/03 01:05:19;;;;;;;65.20;33.63;;;3.10;99.90;;;;;;5069983;28;20435;-84
2020/12/03 01:07:45;;;;;;;64.50;32.83;;;3.10;99.90;;;;;;5069056;28;20473;-85
2020/12/03 01:10:21;;;;;;;68.85;33.17;;;3.20;99.90;;;;;;5088534;28;20032;-85
2020/12/03 01:12:48;;;;;;;72.72;34.33;;;3.10;99.90;;;;;;5064357;28;20016;-85
2020/12/03 01:15:14;;;;;;;68.18;33.78;;;3.10;99.90;;;;;;5068655;28;20082;-84
2020/12/03 01:17:41;;;;;;;72.03;34.45;;;3.10;99.90;;;;;;5069999;28;20459;-85
2020/12/03 01:20:13;;;;;;;72.57;34.97;;;3.00;99.90;;;;;;5061643;28;20061;-84
2020/12/03 01:22:38;;;;;;;77.03;37.17;;;3.10;99.90;;;;;;5069418;28;20026;-85
2020/12/03 01:25:08;;;;;;;70.75;35.58;;;3.00;99.90;;;;;;5070941;28;20048;-84
2020/12/03 01:27:34;;;;;;;73.10;35.60;;;3.00;99.90;;;;;;5072103;28;20361;-84
2020/12/03 01:30:00;;;;;;;72.22;35.17;;;3.10;99.90;;;;;;5073376;28;20031;-85
2020/12/03 01:32:26;;;;;;;66.85;34.47;;;3.10;99.90;;;;;;5072674;28;20392;-84
2020/12/03 01:34:52;;;;;;;69.22;35.08;;;3.10;99.90;;;;;;5063525;28;20147;-84
2020/12/03 01:37:17;;;;;;;85.57;37.13;;;3.10;99.90;;;;;;5074729;28;20060;-84
2020/12/03 01:39:45;;;;;;;69.00;34.20;;;3.00;99.90;;;;;;5074758;28;20032;-84
2020/12/03 01:42:12;;;;;;;72.65;35.25;;;3.10;99.90;;;;;;5087734;28;20024;-84
2020/12/03 01:44:48;;;;;;;66.38;33.58;;;3.00;99.90;;;;;;5092620;28;20090;-84
2020/12/03 01:47:38;;;;;;;75.72;37.25;;;3.10;99.90;;;;;;5074023;28;20024;-84
2020/12/03 01:50:06;;;;;;;75.47;36.10;;;3.10;99.90;;;;;;5065404;28;20733;-84
2020/12/03 01:52:33;;;;;;;73.53;34.60;;;3.10;99.90;;;;;;5072202;28;20130;-84
2020/12/03 01:55:00;;;;;;;69.25;36.20;;;3.10;99.90;;;;;;5071392;28;20436;-85
2020/12/03 01:57:52;;;;;;;72.60;36.03;;;3.10;99.90;;;;;;5072581;28;20016;-84
2020/12/03 02:00:19;;;;;;;69.57;35.97;;;3.10;99.90;;;;;;4975680;28;20043;-85
2020/12/03 02:02:52;;;;;;;70.50;35.67;;;3.10;99.90;;;;;;4974797;28;20511;-84
2020/12/03 02:05:27;;;;;;;76.22;36.75;;;3.00;99.90;;;;;;4992851;28;20490;-85
2020/12/03 02:07:53;;;;;;;70.25;36.78;;;3.10;99.90;;;;;;4974310;28;20130;-84
2020/12/03 02:10:21;;;;;;;77.20;35.90;;;3.10;99.90;;;;;;4973220;28;20485;-85
2020/12/03 02:12:48;;;;;;;79.15;38.80;;;3.10;99.90;;;;;;4975593;28;20050;-84
2020/12/03 02:15:15;;;;;;;75.72;37.38;;;3.10;99.90;;;;;;4987741;28;20116;-84
2020/12/03 02:17:41;;;;;;;73.68;35.80;;;3.10;99.90;;;;;;4974255;28;20039;-84
2020/12/03 02:20:14;;;;;;;79.55;37.65;;;3.10;99.90;;;;;;4988278;28;20047;-84
2020/12/03 02:22:40;;;;;;;78.63;38.80;;;3.10;99.90;;;;;;4976400;28;20057;-83
2020/12/03 02:25:06;;;;;;;78.28;36.60;;;3.10;99.90;;;;;;4973582;28;20046;-85
2020/12/03 02:27:32;;;;;;;74.88;38.10;;;3.10;99.90;;;;;;4991061;28;20026;-84
2020/12/03 02:29:58;;;;;;;77.55;36.58;;;3.10;99.90;;;;;;4970905;28;20042;-84
2020/12/03 02:32:23;;;;;;;73.50;37.10;;;3.10;99.90;;;;;;4979487;28;20070;-84
2020/12/03 02:34:49;;;;;;;79.07;38.67;;;3.00;99.90;;;;;;4969258;28;20054;-84
2020/12/03 02:37:15;;;;;;;82.38;38.47;;;3.10;99.90;;;;;;5025266;28;20110;-84
2020/12/03 02:39:40;;;;;;;72.95;35.70;;;3.00;99.90;;;;;;5071840;28;20090;-84
2020/12/03 02:42:09;;;;;;;78.13;38.92;;;3.10;99.90;;;;;;5071118;28;20457;-84
2020/12/03 02:44:43;;;;;;;68.72;34.47;;;3.10;99.90;;;;;;5089085;28;20086;-85
2020/12/03 02:47:10;;;;;;;79.05;38.20;;;3.10;99.90;;;;;;5071623;28;20081;-84
2020/12/03 02:49:40;;;;;;;77.22;38.00;;;3.10;99.90;;;;;;5070248;28;20020;-84
2020/12/03 02:52:07;;;;;;;80.50;38.42;;;3.10;99.90;;;;;;5073541;28;20062;-84
2020/12/03 02:54:32;;;;;;;76.78;37.58;;;3.10;99.90;;;;;;5070440;28;20023;-84
2020/12/03 02:56:58;;;;;;;86.32;39.75;;;3.00;99.90;;;;;;5070375;28;20509;-84
2020/12/03 02:59:23;;;;;;;88.40;41.25;;;3.10;99.90;;;;;;5071866;28;20020;-84
2020/12/03 03:01:49;;;;;;;78.20;37.92;;;3.20;99.90;;;;;;5071999;28;20042;-84
2020/12/03 03:04:14;;;;;;;80.60;40.22;;;3.10;99.90;;;;;;5071247;28;20052;-84
2020/12/03 03:06:40;;;;;;;88.45;41.22;;;3.10;99.90;;;;;;5072291;28;20035;-84
2020/12/03 03:09:06;;;;;;;84.95;40.03;;;3.10;99.90;;;;;;5072241;28;20024;-84
2020/12/03 03:11:34;;;;;;;80.38;38.25;;;3.10;99.90;;;;;;5073923;28;20035;-83
2020/12/03 03:14:00;;;;;;;86.30;39.33;;;3.10;99.90;;;;;;5075665;28;20742;-81
2020/12/03 03:16:27;;;;;;;90.15;38.38;;;3.00;99.90;;;;;;5104383;28;20035;-84
2020/12/03 03:18:53;;;;;;;95.97;42.22;;;3.10;99.90;;;;;;5108862;28;20084;-84
2020/12/03 03:21:18;;;;;;;86.25;40.67;;;3.10;99.90;;;;;;5110799;28;20016;-85
2020/12/03 03:23:44;;;;;;;90.50;39.42;;;3.10;99.90;;;;;;5090783;28;20048;-84
2020/12/03 03:26:10;;;;;;;89.65;39.97;;;3.10;99.90;;;;;;5083383;28;20051;-85
2020/12/03 03:28:35;;;;;;;95.18;43.42;;;3.00;99.90;;;;;;5073026;28;20024;-85
2020/12/03 03:31:01;;;;;;;83.22;37.83;;;3.00;99.90;;;;;;5067523;28;20051;-85
2020/12/03 03:33:26;;;;;;;94.32;42.65;;;3.00;99.90;;;;;;5094362;28;20020;-85
2020/12/03 03:35:52;;;;;;;88.00;41.20;;;3.00;99.90;;;;;;5075870;28;20388;-85
2020/12/03 03:38:18;;;;;;;91.78;41.03;;;3.10;99.90;;;;;;5091226;28;20016;-85
2020/12/03 03:40:43;;;;;;;90.88;40.75;;;3.10;99.90;;;;;;5072343;28;20058;-85
2020/12/03 03:43:09;;;;;;;97.82;42.45;;;3.10;99.90;;;;;;5071564;28;20089;-85
2020/12/03 03:45:34;;;;;;;90.18;41.58;;;3.20;99.90;;;;;;5084027;28;20539;-85
2020/12/03 03:48:00;;;;;;;94.75;42.28;;;3.20;99.90;;;;;;5072062;28;20042;-85
2020/12/03 03:50:27;;;;;;;85.93;41.03;;;3.10;99.90;;;;;;5072234;28;20028;-85
2020/12/03 03:52:52;;;;;;;89.55;41.85;;;3.20;99.90;;;;;;5071730;28;20031;-85
2020/12/03 03:55:18;;;;;;;93.18;40.88;;;3.20;99.90;;;;;;5070896;28;20040;-84
2020/12/03 03:57:43;;;;;;;86.32;38.40;;;3.20;99.90;;;;;;5067905;28;20020;-85
2020/12/03 04:00:09;;;;;;;83.72;38.67;;;3.20;99.90;;;;;;5070635;28;20043;-85
2020/12/03 04:02:35;;;;;;;80.40;39.45;;;3.20;99.90;;;;;;5070718;28;20027;-84
2020/12/03 04:05:01;;;;;;;79.32;37.95;;;3.30;99.90;;;;;;5072604;28;20039;-85
2020/12/03 04:07:26;;;;;;;82.63;40.25;;;3.30;99.90;;;;;;5070494;28;20031;-85
2020/12/03 04:09:52;;;;;;;83.75;39.80;;;3.30;99.90;;;;;;5090471;28;20039;-85
2020/12/03 04:12:17;;;;;;;85.95;39.00;;;3.30;99.90;;;;;;5090190;28;20016;-85
2020/12/03 04:14:43;;;;;;;82.32;39.28;;;3.30;99.90;;;;;;5082192;28;20051;-85
2020/12/03 04:17:08;;;;;;;85.38;39.03;;;3.20;99.90;;;;;;5086217;28;20023;-85
2020/12/03 04:19:34;;;;;;;88.85;38.47;;;3.20;99.90;;;;;;5090800;28;20099;-85
2020/12/03 04:22:00;;;;;;;89.97;41.20;;;3.30;99.90;;;;;;5082833;28;20070;-84
2020/12/03 04:24:25;;;;;;;90.00;39.45;;;3.30;99.90;;;;;;5071928;28;20052;-84
2020/12/03 04:26:51;;;;;;;82.25;39.15;;;3.30;99.90;;;;;;5088015;28;20375;-85
2020/12/03 04:29:17;;;;;;;84.80;38.72;;;3.40;99.90;;;;;;5055287;28;20119;-85
2020/12/03 04:31:43;;;;;;;85.93;40.10;;;3.40;99.90;;;;;;5069477;28;20024;-84
2020/12/03 04:34:08;;;;;;;79.45;36.58;;;3.40;99.90;;;;;;5071455;28;20028;-85
2020/12/03 04:36:34;;;;;;;89.22;38.85;;;3.40;99.90;;;;;;5071203;28;20075;-84
2020/12/03 04:39:00;;;;;;;88.50;39.60;;;3.40;99.90;;;;;;5054842;28;20065;-85
2020/12/03 04:41:25;;;;;;;80.80;38.65;;;3.40;99.90;;;;;;5072589;28;20081;-85
2020/12/03 04:43:59;;;;;;;89.60;38.90;;;3.40;99.90;;;;;;5071340;28;20032;-85
2020/12/03 04:46:44;;;;;;;85.10;39.42;;;3.40;99.90;;;;;;5068322;28;20036;-85
2020/12/03 04:49:27;;;;;;;95.63;40.75;;;3.40;99.90;;;;;;5068374;28;20044;-85
2020/12/03 04:51:52;;;;;;;82.63;36.47;;;3.40;99.90;;;;;;5067082;28;20028;-85
2020/12/03 04:54:23;;;;;;;87.57;39.95;;;3.40;99.90;;;;;;5069983;28;20031;-85
2020/12/03 04:57:21;;;;;;;79.55;37.28;;;3.40;99.90;;;;;;5071738;28;20029;-85
2020/12/03 05:00:05;;;;;;;84.10;36.95;;;3.40;99.90;;;;;;5085934;28;20024;-85
2020/12/03 05:02:36;;;;;;;84.65;37.03;;;3.50;99.90;;;;;;5088328;28;20020;-85
2020/12/03 05:05:25;;;;;;;92.35;39.90;;;3.50;99.90;;;;;;5087883;28;20038;-85
2020/12/03 05:08:00;;;;;;;90.95;37.53;;;3.40;99.90;;;;;;5083836;28;20032;-85
2020/12/03 05:10:39;;;;;;;80.47;38.55;;;3.50;99.90;;;;;;5075320;28;20023;-84
2020/12/03 05:13:12;;;;;;;88.18;39.83;;;3.50;99.90;;;;;;5074303;28;20519;-85
2020/12/03 05:15:38;;;;;;;88.20;36.03;;;3.50;99.90;;;;;;5073070;28;20130;-85
2020/12/03 05:18:36;;;;;;;85.35;36.05;;;3.60;99.90;;;;;;5074519;28;20557;-85
2020/12/03 05:21:03;;;;;;;81.28;37.13;;;3.60;99.90;;;;;;5070482;28;20049;-85
2020/12/03 05:23:32;;;;;;;88.10;40.63;;;3.60;99.90;;;;;;5071311;28;20708;-85
2020/12/03 05:25:59;;;;;;;78.72;36.65;;;3.60;99.90;;;;;;5091060;28;20438;-85
2020/12/03 05:28:34;;;;;;;84.97;38.38;;;3.60;99.90;;;;;;5090355;28;20031;-85
2020/12/03 05:31:12;;;;;;;76.30;37.65;;;3.60;99.90;;;;;;5071757;28;20044;-85
2020/12/03 05:33:38;;;;;;;86.80;37.85;;;3.70;99.90;;;;;;5069758;28;21062;-85
2020/12/03 05:36:03;;;;;;;80.28;38.15;;;3.70;99.90;;;;;;5069056;28;20135;-85
2020/12/03 05:38:30;;;;;;;81.25;37.78;;;3.70;99.90;;;;;;5075007;28;20035;-85
2020/12/03 05:41:05;;;;;;;85.50;39.78;;;3.70;99.90;;;;;;5061630;28;20158;-85
2020/12/03 05:43:32;;;;;;;92.57;38.92;;;3.70;99.90;;;;;;5074541;28;20027;-85
2020/12/03 05:46:00;;;;;;;77.40;36.97;;;3.70;99.90;;;;;;5089474;28;20028;-85
2020/12/03 05:48:26;;;;;;;78.03;36.67;;;3.80;99.90;;;;;;5068050;28;20472;-85
2020/12/03 05:50:55;;;;;;;83.50;37.97;;;3.80;99.90;;;;;;5100224;28;20034;-86
2020/12/03 05:53:25;;;;;;;82.32;39.72;;;3.80;99.90;;;;;;5087625;28;20039;-84
2020/12/03 05:55:51;;;;;;;79.60;37.88;;;3.70;99.90;;;;;;5105923;28;20138;-85
2020/12/03 05:58:16;;;;;;;74.65;35.45;;;3.70;99.90;;;;;;5070824;28;20031;-85
2020/12/03 06:00:43;;;;;;;76.28;36.20;;;3.70;99.90;;;;;;5090675;28;20024;-84
2020/12/03 06:03:36;;;;;;;79.07;37.63;;;3.70;99.90;;;;;;5093458;28;20028;-86
2020/12/03 06:06:26;;;;;;;84.47;37.65;;;3.70;99.90;;;;;;5088748;28;20440;-85
2020/12/03 06:09:29;;;;;;;76.90;36.20;;;3.80;99.90;;;;;;5086032;28;20028;-85
2020/12/03 06:12:28;;;;;;;80.78;37.03;;;3.70;99.90;;;;;;5069815;28;20415;-85
2020/12/03 06:15:11;;;;;;;77.10;36.33;;;3.80;99.90;;;;;;5089588;28;20107;-86
2020/12/03 06:17:50;;;;;;;76.57;35.05;;;3.70;99.90;;;;;;5069444;28;20025;-85
2020/12/03 06:20:49;;;;;;;81.82;36.10;;;3.80;99.90;;;;;;5068488;28;20718;-86
2020/12/03 06:23:39;;;;;;;82.80;36.33;;;3.90;99.90;;;;;;5073727;28;20028;-86
2020/12/03 06:26:41;;;;;;;75.88;34.95;;;3.90;99.90;;;;;;5070155;28;20040;-86
2020/12/03 06:29:13;;;;;;;73.30;34.88;;;3.90;99.90;;;;;;5069402;28;20031;-86
2020/12/03 06:32:04;;;;;;;69.18;33.55;;;3.90;99.90;;;;;;5069196;28;20032;-86
2020/12/03 06:34:51;;;;;;;79.05;35.15;;;3.90;99.90;;;;;;5071850;28;20027;-86
2020/12/03 06:37:25;;;;;;;75.57;33.50;;;3.90;99.90;;;;;;5068615;28;20035;-85
2020/12/03 06:40:22;;;;;;;76.88;33.22;;;3.90;99.90;;;;;;5070122;28;20064;-86
2020/12/03 06:42:53;;;;;;;76.63;35.85;;;3.90;99.90;;;;;;5066671;28;20031;-86
2020/12/03 06:45:23;;;;;;;70.30;34.92;;;3.90;99.90;;;;;;5069474;28;20016;-85
2020/12/03 06:48:11;;;;;;;75.40;33.25;;;3.90;99.90;;;;;;5071523;28;20036;-87
2020/12/03 06:50:51;;;;;;;70.30;31.08;;;4.00;99.90;;;;;;5070590;28;20024;-87
2020/12/03 06:53:29;;;;;;;74.80;35.03;;;4.00;99.90;;;;;;5073063;28;20051;-85
2020/12/03 06:56:34;;;;;;;70.00;34.05;;;4.00;99.90;;;;;;5067845;28;20031;-85
2020/12/03 06:59:24;;;;;;;72.55;35.03;;;4.00;99.90;;;;;;5070429;28;20081;-85
2020/12/03 07:02:19;;;;;;;74.50;32.75;;;4.10;99.90;;;;;;5066565;28;20142;-85
2020/12/03 07:05:26;;;;;;;71.40;33.75;;;4.10;99.90;;;;;;5073224;28;20096;-85
2020/12/03 07:08:33;;;;;;;75.75;33.85;;;4.00;99.90;;;;;;5072620;28;20032;-86
2020/12/03 07:11:28;;;;;;;79.88;33.70;;;4.00;99.90;;;;;;5075764;28;20045;-85
2020/12/03 07:14:15;;;;;;;76.60;33.42;;;4.00;99.90;;;;;;5071501;28;20032;-84
2020/12/03 07:17:18;;;;;;;73.75;33.10;;;4.00;99.90;;;;;;5069915;28;20044;-85
2020/12/03 07:19:50;;;;;;;74.00;33.92;;;4.00;99.90;;;;;;5067709;28;20115;-86
2020/12/03 07:22:26;;;;;;;70.07;32.83;;;4.00;99.90;;;;;;5067521;28;20033;-83
2020/12/03 07:24:55;;;;;;;86.65;34.83;;;4.00;99.90;;;;;;5087799;28;20052;-84
2020/12/03 07:27:41;;;;;;;77.93;35.45;;;4.00;99.90;;;;;;5065642;28;20045;-85
2020/12/03 07:30:13;;;;;;;71.18;31.92;;;4.00;99.90;;;;;;5068413;28;20353;-83
2020/12/03 07:33:04;;;;;;;82.07;36.22;;;3.90;99.90;;;;;;5067936;28;20024;-84
2020/12/03 07:35:49;;;;;;;81.03;36.08;;;4.00;99.90;;;;;;5065319;28;20088;-83
2020/12/03 07:38:41;;;;;;;62.72;31.77;;;4.00;99.90;;;;;;5083302;28;21378;-87
2020/12/03 07:41:14;;;;;;;79.10;34.10;;;3.90;99.90;;;;;;5066617;28;20088;-83
2020/12/03 07:43:40;;;;;;;79.53;35.30;;;3.90;99.90;;;;;;5080440;28;20070;-84
2020/12/03 07:46:26;;;;;;;75.80;33.85;;;3.90;99.90;;;;;;5063535;28;20432;-83
2020/12/03 07:48:52;;;;;;;75.80;33.40;;;3.80;99.90;;;;;;5076986;28;20024;-83
2020/12/03 07:51:19;;;;;;;73.72;32.42;;;3.90;99.90;;;;;;5078663;28;20115;-83
2020/12/03 07:53:44;;;;;;;75.75;34.80;;;3.90;99.90;;;;;;5080271;28;20016;-84
2020/12/03 07:56:36;;;;;;;74.43;33.05;;;4.00;99.90;;;;;;5082932;28;20101;-87
2020/12/03 07:59:33;;;;;;;67.35;34.45;;;4.00;99.90;;;;;;5084059;28;20028;-85
2020/12/03 08:02:02;;;;;;;71.47;33.33;;;4.00;99.90;;;;;;5070528;28;20496;-85
2020/12/03 08:04:35;;;;;;;69.22;32.03;;;3.90;99.90;;;;;;5082388;28;20059;-86
2020/12/03 08:07:03;;;;;;;64.60;31.08;;;4.00;99.90;;;;;;5077919;28;20028;-86
2020/12/03 08:09:46;;;;;;;65.47;33.08;;;4.00;99.90;;;;;;5064132;28;20068;-84
2020/12/03 08:12:21;;;;;;;66.78;31.13;;;4.00;99.90;;;;;;5070528;28;20043;-85
2020/12/03 08:14:49;;;;;;;69.00;31.58;;;4.00;99.90;;;;;;5065719;28;20057;-85
2020/12/03 08:17:21;;;;;;;65.00;31.98;;;4.10;99.90;;;;;;5062803;28;20028;-84
2020/12/03 08:19:57;;;;;;;64.30;30.48;;;4.10;99.90;;;;;;5078910;28;20032;-84
2020/12/03 08:22:29;;;;;;;60.85;29.40;;;4.10;99.90;;;;;;5063788;28;20062;-84
2020/12/03 08:25:09;;;;;;;69.40;32.75;;;4.10;99.90;;;;;;5058640;28;20052;-84
2020/12/03 08:27:35;;;;;;;63.15;29.55;;;4.10;99.90;;;;;;5079977;28;20031;-84
2020/12/03 08:30:00;;;;;;;69.13;30.88;;;4.20;99.90;;;;;;5064419;28;20378;-84
2020/12/03 08:32:26;;;;;;;61.45;31.10;;;4.20;99.90;;;;;;5066489;28;20036;-84
2020/12/03 08:34:52;;;;;;;63.13;30.55;;;4.20;99.90;;;;;;5083531;28;20049;-85
2020/12/03 08:37:21;;;;;;;65.28;31.33;;;4.20;99.90;;;;;;5058874;28;20040;-83
2020/12/03 08:39:53;;;;;;;67.75;29.98;;;4.20;99.90;;;;;;5063759;28;20032;-85
2020/12/03 08:42:19;;;;;;;61.47;29.17;;;4.20;99.90;;;;;;5031436;28;20135;-84
2020/12/03 08:44:46;;;;;;;64.45;30.83;;;4.30;99.90;;;;;;5037889;28;20121;-84
2020/12/03 08:47:42;;;;;;;64.95;31.23;;;4.30;99.90;;;;;;5019827;28;20079;-84
2020/12/03 08:50:14;;;;;;;65.93;29.60;;;4.30;99.90;;;;;;5034932;28;20482;-84
2020/12/03 08:52:40;;;;;;;64.63;30.50;;;4.30;99.90;;;;;;5035549;28;20058;-84
2020/12/03 08:55:08;;;;;;;67.05;30.75;;;4.30;99.90;;;;;;5038114;28;20045;-85
2020/12/03 08:57:38;;;;;;;72.43;31.45;;;4.30;99.90;;;;;;5038570;28;21244;-84
2020/12/03 09:00:08;;;;;;;72.63;32.15;;;4.30;99.90;;;;;;5034269;28;20051;-85
2020/12/03 09:02:34;;;;;;;79.05;33.97;;;4.30;99.90;;;;;;5017396;28;20529;-83
2020/12/03 09:05:00;;;;;;;72.63;31.63;;;4.30;99.90;;;;;;5035051;28;20046;-86
2020/12/03 09:07:39;;;;;;;69.65;30.92;;;4.30;99.90;;;;;;5030395;28;20057;-84
2020/12/03 09:10:06;;;;;;;70.13;29.95;;;4.40;99.90;;;;;;5021535;28;20159;-86
2020/12/03 09:12:35;;;;;;;77.70;31.52;;;4.30;99.90;;;;;;5026733;28;20049;-83
2020/12/03 09:15:08;;;;;;;68.47;30.13;;;4.40;99.90;;;;;;5058791;28;20044;-84
2020/12/03 09:17:38;;;;;;;82.97;38.20;;;4.40;99.90;;;;;;5059801;28;20043;-84
2020/12/03 09:20:11;;;;;;;72.90;32.05;;;4.40;99.90;;;;;;5080356;28;20033;-85
2020/12/03 09:22:40;;;;;;;68.60;31.75;;;4.40;99.90;;;;;;5056443;28;20032;-85
2020/12/03 09:25:07;;;;;;;69.38;32.03;;;4.30;99.90;;;;;;5056525;28;20044;-85
2020/12/03 09:27:46;;;;;;;58.63;28.73;;;4.40;99.90;;;;;;5053769;28;20031;-85
2020/12/03 09:30:21;;;;;;;77.45;30.05;;;4.40;99.90;;;;;;5054213;28;20048;-85
2020/12/03 09:33:09;;;;;;;63.72;28.40;;;4.50;99.90;;;;;;5059020;28;20503;-85
2020/12/03 09:35:35;;;;;;;65.10;29.83;;;4.50;99.90;;;;;;5059361;28;20577;-85
2020/12/03 09:38:04;;;;;;;64.63;30.08;;;4.50;99.90;;;;;;5067859;28;20039;-85
2020/12/03 09:40:33;;;;;;;61.10;27.58;;;4.50;99.90;;;;;;5064141;28;20055;-86
2020/12/03 09:42:59;;;;;;;60.05;29.35;;;4.50;99.90;;;;;;5069389;28;20027;-86
2020/12/03 09:45:35;;;;;;;71.63;31.27;;;4.50;99.90;;;;;;5039222;28;20045;-84
2020/12/03 09:48:02;;;;;;;64.28;28.98;;;4.50;99.90;;;;;;5074014;28;20085;-84
2020/12/03 09:50:28;;;;;;;61.53;28.92;;;4.60;99.90;;;;;;5047981;28;20019;-85
2020/12/03 09:52:55;;;;;;;67.50;32.20;;;4.60;99.90;;;;;;5065381;28;20712;-86
2020/12/03 09:55:21;;;;;;;62.88;29.70;;;4.60;99.90;;;;;;5065413;28;20063;-85
2020/12/03 09:57:55;;;;;;;62.22;28.38;;;4.70;99.90;;;;;;5067397;28;20133;-85
2020/12/03 10:00:33;;;;;;;64.30;28.50;;;4.80;99.90;;;;;;5058955;28;21614;-85
2020/12/03 10:03:20;;;;;;;60.92;27.98;;;4.70;99.90;;;;;;5059159;28;20055;-86
2020/12/03 10:06:23;;;;;;;66.03;29.63;;;4.70;99.90;;;;;;5082856;28;20377;-86
2020/12/03 10:09:27;;;;;;;66.95;28.88;;;4.80;99.90;;;;;;5081030;28;20067;-85
2020/12/03 10:11:59;;;;;;;58.80;25.85;;;4.90;99.90;;;;;;5061658;28;20030;-85
2020/12/03 10:14:28;;;;;;;;;;;5.00;99.90;;;;;;5083550;28;20131;-85
2020/12/03 10:17:05;;;;;;;64.68;27.13;;;4.90;99.90;;;;;;5084805;28;19976;-85
2020/12/03 10:19:37;;;;;;;60.85;26.98;;;5.00;99.90;;;;;;5062001;28;20040;-84
2020/12/03 10:22:05;;;;;;;50.83;25.33;;;5.00;99.90;;;;;;5066253;28;21654;-85
2020/12/03 10:24:39;;;;;;;51.72;27.75;;;5.10;99.90;;;;;;5080376;28;20052;-84
2020/12/03 10:27:20;;;;;;;62.33;30.58;;;5.00;99.90;;;;;;5064641;28;20487;-84
2020/12/03 10:30:09;;;;;;;54.88;25.85;;;5.10;99.90;;;;;;5083356;28;20028;-84
2020/12/03 10:32:45;;;;;;;57.45;28.08;;;5.00;99.90;;;;;;5067126;28;20043;-84
2020/12/03 10:35:13;;;;;;;53.95;26.85;;;5.00;99.90;;;;;;5073108;28;20039;-84
2020/12/03 10:37:47;;;;;;;61.15;27.35;;;5.00;99.90;;;;;;5075591;28;20072;-84
2020/12/03 10:40:20;;;;;;;58.78;26.88;;;5.00;99.90;;;;;;5072909;28;20024;-84
2020/12/03 10:43:03;;;;;;;58.25;26.63;;;5.00;99.90;;;;;;5064169;28;20028;-85
2020/12/03 10:45:33;;;;;;;63.22;30.20;;;5.00;99.90;;;;;;5063328;28;20039;-85
2020/12/03 10:48:11;;;;;;;57.83;29.80;;;5.00;99.90;;;;;;5061936;28;20057;-84
2020/12/03 10:50:56;;;;;;;57.88;27.00;;;5.00;99.90;;;;;;5046536;28;20087;-84
2020/12/03 10:53:25;;;;;;;58.95;28.77;;;5.00;99.90;;;;;;5060513;28;20021;-84
2020/12/03 10:56:00;;;;;;;58.45;27.33;;;5.00;99.90;;;;;;5061678;28;20032;-85
2020/12/03 10:59:07;;;;;;;55.17;27.95;;;4.90;99.90;;;;;;5055479;28;20061;-85
2020/12/03 11:01:34;;;;;;;56.55;27.00;;;4.90;99.90;;;;;;5072410;28;20061;-85
2020/12/03 11:04:04;;;;;;;55.03;26.30;;;5.00;99.90;;;;;;5059272;28;20173;-86
2020/12/03 11:06:31;;;;;;;56.97;28.13;;;5.00;99.90;;;;;;5076769;28;20039;-86
2020/12/03 11:08:58;;;;;;;61.33;30.08;;;5.00;99.90;;;;;;5076909;28;20077;-86
2020/12/03 11:11:31;;;;;;;68.30;29.95;;;5.10;99.90;;;;;;5060837;28;20520;-85
2020/12/03 11:13:58;;;;;;;54.03;27.45;;;5.10;99.90;;;;;;5075455;28;20756;-86
2020/12/03 11:16:28;;;;;;;66.90;27.52;;;5.00;99.90;;;;;;5060120;28;20051;-85
2020/12/03 11:18:59;;;;;;;58.47;27.47;;;5.10;99.90;;;;;;5067573;28;20030;-84
2020/12/03 11:21:29;;;;;;;53.83;26.42;;;5.10;99.90;;;;;;5070683;28;20031;-86
2020/12/03 11:24:11;;;;;;;58.25;28.38;;;5.10;99.90;;;;;;5073551;28;20044;-83
2020/12/03 11:26:41;;;;;;;52.60;25.25;;;5.10;99.90;;;;;;5063860;28;20031;-83
2020/12/03 11:29:15;;;;;;;55.43;26.77;;;5.20;99.90;;;;;;5077431;28;20048;-83
2020/12/03 11:31:42;;;;;;;49.10;25.67;;;5.10;99.90;;;;;;5066496;28;20036;-86
2020/12/03 11:34:10;;;;;;;51.53;25.60;;;5.10;99.90;;;;;;5067700;28;20051;-85
2020/12/03 11:36:40;;;;;;;57.55;25.83;;;5.10;99.90;;;;;;5065221;28;20036;-84
2020/12/03 11:39:08;;;;;;;60.67;24.92;;;5.10;99.90;;;;;;5058972;28;20056;-84
2020/12/03 11:42:03;;;;;;;64.13;25.88;;;5.10;99.90;;;;;;5075405;28;20344;-84
2020/12/03 11:45:00;;;;;;;44.78;23.02;;;5.20;99.90;;;;;;5063947;28;20133;-84
2020/12/03 11:50:18;;;;;;;59.88;26.00;;;5.30;99.90;;;;;;5073475;28;20087;-84
2020/12/03 11:52:43;;;;;;;48.75;26.02;;;5.30;99.90;;;;;;5057700;28;20066;-84
2020/12/03 11:55:23;;;;;;;52.55;24.65;;;5.40;99.90;;;;;;5055661;28;20133;-84
2020/12/03 11:57:50;;;;;;;46.78;22.17;;;5.40;99.90;;;;;;5058062;28;20035;-84
2020/12/03 12:00:17;;;;;;;50.80;24.33;;;5.40;99.90;;;;;;5055597;28;20340;-83
2020/12/03 12:02:43;;;;;;;53.42;25.75;;;5.40;99.90;;;;;;5059466;28;20538;-83
2020/12/03 12:05:17;;;;;;;59.40;24.77;;;5.50;99.90;;;;;;5057678;28;20043;-83
2020/12/03 12:07:57;;;;;;;49.67;24.13;;;5.40;99.90;;;;;;5074723;28;20077;-84
2020/12/03 12:10:32;;;;;;;50.95;25.83;;;5.40;99.90;;;;;;5081783;28;20030;-84
2020/12/03 12:12:58;;;;;;;46.97;24.00;;;5.40;99.90;;;;;;5067897;28;20431;-85
2020/12/03 12:15:23;;;;;;;50.05;24.73;;;5.30;99.90;;;;;;5063648;28;20046;-83
2020/12/03 12:17:49;;;;;;;46.35;23.20;;;5.40;99.90;;;;;;5068301;28;20723;-84
2020/12/03 12:20:16;;;;;;;52.03;23.75;;;5.40;99.90;;;;;;5063184;28;20433;-83
2020/12/03 12:22:41;;;;;;;55.95;24.13;;;5.40;99.90;;;;;;5080654;28;20050;-83
2020/12/03 12:25:07;;;;;;;49.17;23.88;;;5.40;99.90;;;;;;5065706;28;20384;-84
2020/12/03 12:27:34;;;;;;;53.85;23.55;;;5.40;99.90;;;;;;5078618;28;20057;-85
2020/12/03 12:29:59;;;;;;;49.95;23.00;;;5.40;99.90;;;;;;5076246;28;20035;-84
2020/12/03 12:32:25;;;;;;;55.40;24.40;;;5.40;99.90;;;;;;5079877;28;20020;-85
2020/12/03 12:34:51;;;;;;;45.70;23.17;;;5.40;99.90;;;;;;5060197;28;20036;-86
2020/12/03 12:37:16;;;;;;;54.05;23.42;;;5.30;99.90;;;;;;5078016;28;20093;-85
2020/12/03 12:39:42;;;;;;;46.05;22.48;;;5.40;99.90;;;;;;5054673;28;20079;-85
2020/12/03 12:42:09;;;;;;;49.60;23.13;;;5.40;99.90;;;;;;5058658;28;20031;-83
2020/12/03 12:44:35;;;;;;;52.40;23.50;;;5.40;99.90;;;;;;5064404;28;20362;-87
2020/12/03 12:47:03;;;;;;;50.75;22.25;;;5.40;99.90;;;;;;5081017;28;20027;-85
2020/12/03 12:49:28;;;;;;;48.30;22.98;;;5.30;99.90;;;;;;5077708;28;20024;-85
2020/12/03 12:51:54;;;;;;;51.08;23.40;;;5.30;99.90;;;;;;5055924;28;20140;-85
2020/12/03 12:54:23;;;;;;;47.20;23.48;;;5.40;99.90;;;;;;5055089;28;20047;-85
2020/12/03 12:56:49;;;;;;;63.20;22.45;;;5.50;99.90;;;;;;5076710;28;20032;-84
2020/12/03 12:59:15;;;;;;;42.97;20.77;;;5.50;99.90;;;;;;5057995;28;20514;-85
2020/12/03 13:01:45;;;;;;;52.20;22.85;;;5.60;99.90;;;;;;5076585;28;20035;-85
2020/12/03 13:04:12;;;;;;;55.17;21.40;;;5.60;99.90;;;;;;5073563;28;20071;-85
2020/12/03 13:06:40;;;;;;;45.70;23.10;;;5.60;99.90;;;;;;5056252;28;20081;-86